Time,TemperatureF,DewpointF,PressureIn,WindDirection,WindDirectionDegrees,WindSpeedMPH,WindSpeedGustMPH,Humidity,HourlyPrecipIn,Conditions,Clouds,dailyrainin,SoftwareType,DateUTC
2013-10-10 00:01:00,50.5,40.5,29.78,NNE,27,0.0,3.0,68,0.00,,,0.00,meteohub,2013-10-10 07:01:00,
2013-10-10 00:06:00,50.2,40.1,29.78,NE,46,0.0,3.0,68,0.00,,,0.00,meteohub,2013-10-10 07:06:00,
2013-10-10 00:11:00,49.6,40.3,29.78,NE,46,0.0,1.0,70,0.00,,,0.00,meteohub,2013-10-10 07:11:00,
2013-10-10 00:16:00,49.3,40.3,29.78,NE,45,0.0,1.0,71,0.00,,,0.00,meteohub,2013-10-10 07:16:00,
2013-10-10 00:21:00,49.3,40.3,29.78,NE,45,0.0,1.0,71,0.00,,,0.00,meteohub,2013-10-10 07:21:00,
2013-10-10 00:26:00,49.5,40.5,29.79,NE,44,0.0,1.0,71,0.00,,,0.00,meteohub,2013-10-10 07:26:00,
2013-10-10 00:31:00,49.8,40.8,29.79,NE,48,2.0,2.0,71,0.00,,,0.00,meteohub,2013-10-10 07:31:00,
2013-10-10 00:36:00,50.5,40.8,29.79,NNE,33,1.0,3.0,69,0.00,,,0.00,meteohub,2013-10-10 07:36:00,
2013-10-10 00:41:00,50.4,40.6,29.79,North,349,2.0,3.0,69,0.00,,,0.00,meteohub,2013-10-10 07:41:00,
2013-10-10 00:46:00,50.2,41.2,29.79,NNE,15,1.0,3.0,71,0.00,,,0.00,meteohub,2013-10-10 07:46:00,
2013-10-10 00:51:00,49.6,41.4,29.79,NNE,12,1.0,3.0,73,0.00,,,0.00,meteohub,2013-10-10 07:51:00,
2013-10-10 00:56:00,49.3,41.7,29.79,North,3,0.0,3.0,75,0.00,,,0.00,meteohub,2013-10-10 07:56:00,
2013-10-10 01:01:00,49.3,42.1,29.79,North,352,2.0,3.0,76,0.00,,,0.00,meteohub,2013-10-10 08:01:00,
2013-10-10 01:06:00,49.3,41.4,29.79,North,0,1.0,3.0,74,0.00,,,0.00,meteohub,2013-10-10 08:06:00,
2013-10-10 01:11:00,49.1,40.8,29.79,North,349,2.0,3.0,73,0.00,,,0.00,meteohub,2013-10-10 08:11:00,
2013-10-10 01:16:00,49.5,40.5,29.79,NNE,20,1.0,3.0,71,0.00,,,0.00,meteohub,2013-10-10 08:16:00,
2013-10-10 01:21:00,49.3,40.6,29.79,NNE,19,0.0,3.0,72,0.00,,,0.00,meteohub,2013-10-10 08:21:00,
2013-10-10 01:26:00,48.9,40.6,29.79,NNE,18,0.0,3.0,73,0.00,,,0.00,meteohub,2013-10-10 08:26:00,
2013-10-10 01:31:00,48.7,40.1,29.79,North,349,3.0,3.0,72,0.00,,,0.00,meteohub,2013-10-10 08:31:00,
2013-10-10 01:36:00,48.7,40.1,29.79,NNE,13,0.0,3.0,72,0.00,,,0.00,meteohub,2013-10-10 08:36:00,
2013-10-10 01:41:00,49.1,40.5,29.79,NNE,13,1.0,3.0,72,0.00,,,0.00,meteohub,2013-10-10 08:41:00,
2013-10-10 01:46:00,48.9,40.3,29.79,North,8,1.0,3.0,72,0.00,,,0.00,meteohub,2013-10-10 08:46:00,
2013-10-10 01:51:00,48.6,40.3,29.79,North,9,1.0,3.0,73,0.00,,,0.00,meteohub,2013-10-10 08:51:00,
2013-10-10 01:56:00,48.6,40.3,29.79,NNE,14,0.0,3.0,73,0.00,,,0.00,meteohub,2013-10-10 08:56:00,
2013-10-10 02:01:00,48.4,40.5,29.79,North,4,1.0,3.0,74,0.00,,,0.00,meteohub,2013-10-10 09:01:00,
2013-10-10 02:06:00,48.4,40.5,29.79,NNE,20,0.0,3.0,74,0.00,,,0.00,meteohub,2013-10-10 09:06:00,
2013-10-10 02:11:00,48.0,40.5,29.80,NNE,20,0.0,3.0,75,0.00,,,0.00,meteohub,2013-10-10 09:11:00,
2013-10-10 02:16:00,47.8,41.0,29.80,NNE,22,0.0,2.0,77,0.00,,,0.00,meteohub,2013-10-10 09:16:00,
2013-10-10 02:21:00,48.2,41.4,29.80,NNE,20,0.0,3.0,77,0.00,,,0.00,meteohub,2013-10-10 09:21:00,
2013-10-10 02:26:00,48.2,41.4,29.81,NNE,20,0.0,3.0,77,0.00,,,0.00,meteohub,2013-10-10 09:26:00,
2013-10-10 02:31:00,48.0,41.5,29.81,NNE,20,0.0,1.0,78,0.00,,,0.00,meteohub,2013-10-10 09:31:00,
2013-10-10 02:36:00,48.0,40.8,29.81,NNW,345,3.0,3.0,76,0.00,,,0.00,meteohub,2013-10-10 09:36:00,
2013-10-10 02:41:00,48.0,40.1,29.80,NNE,33,0.0,4.0,74,0.00,,,0.00,meteohub,2013-10-10 09:41:00,
2013-10-10 02:46:00,48.2,39.9,29.81,West,270,1.0,4.0,73,0.00,,,0.00,meteohub,2013-10-10 09:46:00,
2013-10-10 02:51:00,48.0,40.8,29.81,NNE,19,0.0,4.0,76,0.00,,,0.00,meteohub,2013-10-10 09:51:00,
2013-10-10 02:56:00,47.5,40.6,29.81,NNE,15,0.0,2.0,77,0.00,,,0.00,meteohub,2013-10-10 09:56:00,
2013-10-10 03:01:00,47.3,39.7,29.81,North,352,1.0,2.0,75,0.00,,,0.00,meteohub,2013-10-10 10:01:00,
2013-10-10 03:06:00,47.5,39.6,29.81,NNE,23,0.0,2.0,74,0.00,,,0.00,meteohub,2013-10-10 10:06:00,
2013-10-10 03:11:00,47.8,39.2,29.81,NW,323,3.0,3.0,72,0.00,,,0.00,meteohub,2013-10-10 10:11:00,
2013-10-10 03:16:00,48.6,39.6,29.81,NNE,19,0.0,3.0,71,0.00,,,0.00,meteohub,2013-10-10 10:16:00,
2013-10-10 03:21:00,48.6,39.9,29.81,NNE,21,1.0,3.0,72,0.00,,,0.00,meteohub,2013-10-10 10:21:00,
2013-10-10 03:26:00,48.7,39.7,29.81,WSW,250,1.0,4.0,71,0.00,,,0.00,meteohub,2013-10-10 10:26:00,
2013-10-10 03:31:00,48.7,40.5,29.81,North,1,1.0,4.0,73,0.00,,,0.00,meteohub,2013-10-10 10:31:00,
2013-10-10 03:36:00,48.0,40.1,29.81,North,11,0.0,4.0,74,0.00,,,0.00,meteohub,2013-10-10 10:36:00,
2013-10-10 03:41:00,47.7,40.5,29.81,North,1,2.0,4.0,76,0.00,,,0.00,meteohub,2013-10-10 10:41:00,
2013-10-10 03:46:00,47.8,41.7,29.81,NNW,346,3.0,3.0,79,0.00,,,0.00,meteohub,2013-10-10 10:46:00,
2013-10-10 03:51:00,47.8,41.9,29.81,NNW,331,1.0,4.0,80,0.00,,,0.00,meteohub,2013-10-10 10:51:00,
2013-10-10 03:56:00,47.8,41.9,29.81,NW,315,1.0,4.0,80,0.00,,,0.00,meteohub,2013-10-10 10:56:00,
2013-10-10 04:01:00,47.5,41.4,29.81,NNW,338,2.0,4.0,79,0.00,,,0.00,meteohub,2013-10-10 11:01:00,
2013-10-10 04:06:00,47.5,41.4,29.81,NNE,16,1.0,4.0,79,0.00,,,0.00,meteohub,2013-10-10 11:06:00,
2013-10-10 04:11:00,47.7,41.2,29.81,NNW,330,3.0,4.0,78,0.00,,,0.00,meteohub,2013-10-10 11:11:00,
2013-10-10 04:16:00,47.8,40.6,29.81,NNW,338,2.0,5.0,76,0.00,,,0.00,meteohub,2013-10-10 11:16:00,
2013-10-10 04:21:00,47.7,40.8,29.81,North,358,3.0,5.0,77,0.00,,,0.00,meteohub,2013-10-10 11:21:00,
2013-10-10 04:26:00,47.8,41.0,29.81,NE,39,1.0,5.0,77,0.00,,,0.00,meteohub,2013-10-10 11:26:00,
2013-10-10 04:31:00,47.7,40.5,29.81,North,349,2.0,5.0,76,0.00,,,0.00,meteohub,2013-10-10 11:31:00,
2013-10-10 04:36:00,47.7,40.5,29.81,NNE,23,0.0,5.0,76,0.00,,,0.00,meteohub,2013-10-10 11:36:00,
2013-10-10 04:41:00,47.7,40.8,29.82,North,359,1.0,4.0,77,0.00,,,0.00,meteohub,2013-10-10 11:41:00,
2013-10-10 04:46:00,47.8,41.4,29.82,North,359,2.0,4.0,78,0.00,,,0.00,meteohub,2013-10-10 11:46:00,
2013-10-10 04:51:00,47.7,40.8,29.82,NNE,29,1.0,4.0,77,0.00,,,0.00,meteohub,2013-10-10 11:51:00,
2013-10-10 04:56:00,47.7,40.8,29.82,NNE,28,0.0,4.0,77,0.00,,,0.00,meteohub,2013-10-10 11:56:00,
2013-10-10 05:01:00,47.8,40.3,29.82,NNE,18,2.0,4.0,75,0.00,,,0.00,meteohub,2013-10-10 12:01:00,
2013-10-10 05:06:00,48.4,40.5,29.82,NNE,13,1.0,4.0,74,0.00,,,0.00,meteohub,2013-10-10 12:06:00,
2013-10-10 05:11:00,48.0,40.5,29.83,NNE,18,1.0,4.0,75,0.00,,,0.00,meteohub,2013-10-10 12:11:00,
2013-10-10 05:16:00,47.8,40.3,29.83,North,357,2.0,4.0,75,0.00,,,0.00,meteohub,2013-10-10 12:16:00,
2013-10-10 05:21:00,47.8,40.3,29.83,NNE,12,0.0,4.0,75,0.00,,,0.00,meteohub,2013-10-10 12:21:00,
2013-10-10 05:26:00,47.8,40.6,29.83,West,274,1.0,4.0,76,0.00,,,0.00,meteohub,2013-10-10 12:26:00,
2013-10-10 05:31:00,47.5,40.6,29.83,North,1,2.0,4.0,77,0.00,,,0.00,meteohub,2013-10-10 12:31:00,
2013-10-10 05:36:00,47.8,40.6,29.83,North,350,3.0,4.0,76,0.00,,,0.00,meteohub,2013-10-10 12:36:00,
2013-10-10 05:41:00,47.7,40.5,29.83,North,359,2.0,5.0,76,0.00,,,0.00,meteohub,2013-10-10 12:41:00,
2013-10-10 05:46:00,47.7,40.8,29.83,NNE,30,0.0,5.0,77,0.00,,,0.00,meteohub,2013-10-10 12:46:00,
2013-10-10 05:51:00,47.5,40.6,29.83,North,354,4.0,5.0,77,0.00,,,0.00,meteohub,2013-10-10 12:51:00,
2013-10-10 05:56:00,47.5,41.0,29.83,NNE,27,1.0,4.0,78,0.00,,,0.00,meteohub,2013-10-10 12:56:00,
2013-10-10 06:01:00,47.5,41.0,29.84,NNE,23,1.0,4.0,78,0.00,,,0.00,meteohub,2013-10-10 13:01:00,
2013-10-10 06:06:00,47.5,41.0,29.84,West,276,0.0,4.0,78,0.00,,,0.00,meteohub,2013-10-10 13:06:00,
2013-10-10 06:11:00,47.7,41.2,29.84,WNW,293,1.0,4.0,78,0.00,,,0.00,meteohub,2013-10-10 13:11:00,
2013-10-10 06:16:00,48.0,41.2,29.84,NNE,15,1.0,4.0,77,0.00,,,0.00,meteohub,2013-10-10 13:16:00,
2013-10-10 06:21:00,49.1,41.2,29.84,NNW,338,2.0,3.0,74,0.00,,,0.00,meteohub,2013-10-10 13:21:00,
2013-10-10 06:26:00,49.3,41.0,29.84,NNE,16,0.0,4.0,73,0.00,,,0.00,meteohub,2013-10-10 13:26:00,
2013-10-10 06:31:00,49.5,41.2,29.85,North,1,2.0,4.0,73,0.00,,,0.00,meteohub,2013-10-10 13:31:00,
2013-10-10 06:36:00,49.3,41.0,29.85,North,0,2.0,3.0,73,0.00,,,0.00,meteohub,2013-10-10 13:36:00,
2013-10-10 06:41:00,49.3,41.4,29.85,North,8,2.0,3.0,74,0.00,,,0.00,meteohub,2013-10-10 13:41:00,
2013-10-10 06:46:00,49.1,41.9,29.85,West,269,3.0,3.0,76,0.00,,,0.00,meteohub,2013-10-10 13:46:00,
2013-10-10 06:51:00,49.1,41.9,29.85,North,6,0.0,4.0,76,0.00,,,0.00,meteohub,2013-10-10 13:51:00,
2013-10-10 06:56:00,49.1,42.3,29.85,NW,319,2.0,6.0,77,0.00,,,0.00,meteohub,2013-10-10 13:56:00,
2013-10-10 07:01:00,48.9,42.4,29.85,North,8,0.0,6.0,78,0.00,,,0.00,meteohub,2013-10-10 14:01:00,
2013-10-10 07:06:00,48.9,42.4,29.85,NNW,327,3.0,6.0,78,0.00,,,0.00,meteohub,2013-10-10 14:06:00,
2013-10-10 07:11:00,48.7,42.3,29.85,North,8,2.0,5.0,78,0.00,,,0.00,meteohub,2013-10-10 14:11:00,
2013-10-10 07:16:00,48.7,41.9,29.85,North,11,2.0,5.0,77,0.00,,,0.00,meteohub,2013-10-10 14:16:00,
2013-10-10 07:21:00,48.7,41.9,29.86,North,355,2.0,5.0,77,0.00,,,0.00,meteohub,2013-10-10 14:21:00,
2013-10-10 07:26:00,48.6,41.7,29.86,North,352,2.0,4.0,77,0.00,,,0.00,meteohub,2013-10-10 14:26:00,
2013-10-10 07:31:00,48.6,41.4,29.86,NNW,347,2.0,3.0,76,0.00,,,0.00,meteohub,2013-10-10 14:31:00,
2013-10-10 07:36:00,48.9,41.4,29.86,North,1,3.0,3.0,75,0.00,,,0.00,meteohub,2013-10-10 14:36:00,
2013-10-10 07:41:00,49.1,41.2,29.86,NNW,334,2.0,4.0,74,0.00,,,0.00,meteohub,2013-10-10 14:41:00,
2013-10-10 07:46:00,49.5,40.8,29.86,WSW,243,2.0,4.0,72,0.00,,,0.00,meteohub,2013-10-10 14:46:00,
2013-10-10 07:51:00,49.6,41.0,29.86,NNE,33,1.0,5.0,72,0.00,,,0.00,meteohub,2013-10-10 14:51:00,
2013-10-10 07:56:00,50.2,41.2,29.86,North,349,2.0,6.0,71,0.00,,,0.00,meteohub,2013-10-10 14:56:00,
2013-10-10 08:01:00,50.5,41.2,29.87,NNW,340,3.0,6.0,70,0.00,,,0.00,meteohub,2013-10-10 15:01:00,
2013-10-10 08:06:00,50.9,41.5,29.87,WSW,249,2.0,5.0,70,0.00,,,0.00,meteohub,2013-10-10 15:06:00,
2013-10-10 08:11:00,51.3,42.3,29.87,NNE,12,1.0,5.0,71,0.00,,,0.00,meteohub,2013-10-10 15:11:00,
2013-10-10 08:16:00,51.3,42.3,29.87,North,353,3.0,5.0,71,0.00,,,0.00,meteohub,2013-10-10 15:16:00,
2013-10-10 08:21:00,51.4,42.8,29.88,NNE,20,0.0,4.0,72,0.00,,,0.00,meteohub,2013-10-10 15:21:00,
2013-10-10 08:26:00,51.6,43.0,29.88,NNE,25,1.0,4.0,72,0.00,,,0.00,meteohub,2013-10-10 15:26:00,
2013-10-10 08:31:00,52.0,43.2,29.88,NNE,32,0.0,4.0,72,0.00,,,0.00,meteohub,2013-10-10 15:31:00,
2013-10-10 08:36:00,52.2,42.3,29.88,WNW,283,0.0,4.0,69,0.00,,,0.00,meteohub,2013-10-10 15:36:00,
2013-10-10 08:41:00,52.7,42.1,29.88,West,266,2.0,4.0,67,0.00,,,0.00,meteohub,2013-10-10 15:41:00,
2013-10-10 08:46:00,53.2,41.7,29.89,NW,307,1.0,4.0,65,0.00,,,0.00,meteohub,2013-10-10 15:46:00,
2013-10-10 08:51:00,54.0,42.4,29.89,NNE,25,0.0,5.0,65,0.00,,,0.00,meteohub,2013-10-10 15:51:00,
2013-10-10 08:56:00,55.8,42.1,29.89,West,264,3.0,5.0,60,0.00,,,0.00,meteohub,2013-10-10 15:56:00,
2013-10-10 09:01:00,58.1,41.5,29.89,WSW,239,2.0,4.0,54,0.00,,,0.00,meteohub,2013-10-10 16:01:00,
2013-10-10 09:06:00,59.2,42.1,29.89,West,259,4.0,5.0,53,0.00,,,0.00,meteohub,2013-10-10 16:06:00,
2013-10-10 09:11:00,59.5,41.4,29.89,WSW,245,3.0,5.0,51,0.00,,,0.00,meteohub,2013-10-10 16:11:00,
2013-10-10 09:16:00,59.5,41.4,29.89,WSW,255,3.0,5.0,51,0.00,,,0.00,meteohub,2013-10-10 16:16:00,
2013-10-10 09:21:00,60.1,41.4,29.90,WSW,257,5.0,6.0,50,0.00,,,0.00,meteohub,2013-10-10 16:21:00,
2013-10-10 09:26:00,60.4,40.6,29.90,SW,236,2.0,6.0,48,0.00,,,0.00,meteohub,2013-10-10 16:26:00,
2013-10-10 09:31:00,61.2,40.3,29.90,West,262,2.0,6.0,46,0.00,,,0.00,meteohub,2013-10-10 16:31:00,
2013-10-10 09:36:00,62.4,40.8,29.90,SSW,194,0.0,6.0,45,0.00,,,0.00,meteohub,2013-10-10 16:36:00,
2013-10-10 09:41:00,63.7,41.4,29.91,SW,219,1.0,5.0,44,0.00,,,0.00,meteohub,2013-10-10 16:41:00,
2013-10-10 09:46:00,64.0,41.2,29.91,South,183,1.0,5.0,43,0.00,,,0.00,meteohub,2013-10-10 16:46:00,
2013-10-10 09:51:00,64.8,40.5,29.91,NE,39,0.0,4.0,41,0.00,,,0.00,meteohub,2013-10-10 16:51:00,
2013-10-10 09:56:00,65.5,42.4,29.91,East,82,0.0,3.0,43,0.00,,,0.00,meteohub,2013-10-10 16:56:00,
2013-10-10 10:01:00,65.8,41.5,29.91,WNW,291,2.0,3.0,41,0.00,,,0.00,meteohub,2013-10-10 17:01:00,
2013-10-10 10:06:00,66.2,40.5,29.91,WNW,283,2.0,3.0,39,0.00,,,0.00,meteohub,2013-10-10 17:06:00,
2013-10-10 10:11:00,66.7,40.3,29.91,North,358,1.0,3.0,38,0.00,,,0.00,meteohub,2013-10-10 17:11:00,
2013-10-10 10:16:00,67.3,39.4,29.91,NNE,24,0.0,3.0,36,0.00,,,0.00,meteohub,2013-10-10 17:16:00,
2013-10-10 10:21:00,67.5,38.8,29.92,ESE,108,3.0,3.0,35,0.00,,,0.00,meteohub,2013-10-10 17:21:00,
2013-10-10 10:26:00,67.6,39.7,29.92,ENE,74,2.0,4.0,36,0.00,,,0.00,meteohub,2013-10-10 17:26:00,
2013-10-10 10:31:00,68.0,40.1,29.92,ESE,104,2.0,4.0,36,0.00,,,0.00,meteohub,2013-10-10 17:31:00,
2013-10-10 10:36:00,68.5,39.0,29.92,NE,49,0.0,4.0,34,0.00,,,0.00,meteohub,2013-10-10 17:36:00,
2013-10-10 10:41:00,69.1,39.6,29.92,East,94,0.0,4.0,34,0.00,,,0.00,meteohub,2013-10-10 17:41:00,
2013-10-10 10:46:00,68.7,39.2,29.92,ESE,121,2.0,3.0,34,0.00,,,0.00,meteohub,2013-10-10 17:46:00,
2013-10-10 10:51:00,68.5,39.0,29.92,East,101,0.0,5.0,34,0.00,,,0.00,meteohub,2013-10-10 17:51:00,
2013-10-10 10:56:00,69.1,38.8,29.92,SE,127,1.0,5.0,33,0.00,,,0.00,meteohub,2013-10-10 17:56:00,
2013-10-10 11:02:00,69.3,38.1,29.92,SSW,193,0.0,5.0,32,0.00,,,0.00,meteohub,2013-10-10 18:02:00,
2013-10-10 11:07:00,69.3,38.8,29.93,East,99,0.0,3.0,33,0.00,,,0.00,meteohub,2013-10-10 18:07:00,
2013-10-10 11:12:00,69.6,38.5,29.93,SE,124,1.0,5.0,32,0.00,,,0.00,meteohub,2013-10-10 18:12:00,
2013-10-10 11:17:00,70.0,39.6,29.93,SE,139,4.0,5.0,33,0.00,,,0.00,meteohub,2013-10-10 18:17:00,
2013-10-10 11:22:00,70.7,39.4,29.93,ESE,103,0.0,5.0,32,0.00,,,0.00,meteohub,2013-10-10 18:22:00,
2013-10-10 11:27:00,70.7,40.1,29.93,South,183,1.0,7.0,33,0.00,,,0.00,meteohub,2013-10-10 18:27:00,
2013-10-10 11:32:00,71.1,39.7,29.93,South,180,3.0,7.0,32,0.00,,,0.00,meteohub,2013-10-10 18:32:00,
2013-10-10 11:37:00,70.9,39.6,29.93,WSW,243,3.0,7.0,32,0.00,,,0.00,meteohub,2013-10-10 18:37:00,
2013-10-10 11:42:00,71.1,42.1,29.93,WSW,252,9.0,9.0,35,0.00,,,0.00,meteohub,2013-10-10 18:42:00,
2013-10-10 11:47:00,70.5,42.3,29.93,North,353,5.0,9.0,36,0.00,,,0.00,meteohub,2013-10-10 18:47:00,
2013-10-10 11:52:00,70.5,41.5,29.93,West,259,5.0,9.0,35,0.00,,,0.00,meteohub,2013-10-10 18:52:00,
2013-10-10 11:57:00,70.9,40.3,29.93,WSW,239,4.0,9.0,33,0.00,,,0.00,meteohub,2013-10-10 18:57:00,
2013-10-10 12:02:00,71.1,41.4,29.93,WSW,253,5.0,10.0,34,0.00,,,0.00,meteohub,2013-10-10 19:02:00,
2013-10-10 12:07:00,70.3,39.9,29.92,NNE,18,1.0,10.0,33,0.00,,,0.00,meteohub,2013-10-10 19:07:00,
2013-10-10 12:12:00,71.1,41.4,29.92,NNW,331,3.0,10.0,34,0.00,,,0.00,meteohub,2013-10-10 19:12:00,
2013-10-10 12:17:00,71.2,40.6,29.92,WSW,242,5.0,9.0,33,0.00,,,0.00,meteohub,2013-10-10 19:17:00,
2013-10-10 12:22:00,71.2,40.6,29.92,WNW,286,3.0,9.0,33,0.00,,,0.00,meteohub,2013-10-10 19:22:00,
2013-10-10 12:27:00,70.9,40.3,29.92,WSW,257,4.0,9.0,33,0.00,,,0.00,meteohub,2013-10-10 19:27:00,
2013-10-10 12:32:00,70.7,40.1,29.92,West,260,4.0,9.0,33,0.00,,,0.00,meteohub,2013-10-10 19:32:00,
2013-10-10 12:37:00,70.3,39.0,29.92,North,11,2.0,11.0,32,0.00,,,0.00,meteohub,2013-10-10 19:37:00,
2013-10-10 12:42:00,71.1,39.7,29.92,SW,225,4.0,11.0,32,0.00,,,0.00,meteohub,2013-10-10 19:42:00,
2013-10-10 12:47:00,71.4,38.3,29.92,SSW,195,5.0,11.0,30,0.00,,,0.00,meteohub,2013-10-10 19:47:00,
2013-10-10 12:52:00,71.6,38.5,29.92,WSW,245,4.0,10.0,30,0.00,,,0.00,meteohub,2013-10-10 19:52:00,
2013-10-10 12:57:00,71.8,40.3,29.92,WSW,253,2.0,10.0,32,0.00,,,0.00,meteohub,2013-10-10 19:57:00,
2013-10-10 13:02:00,72.5,40.1,29.92,SW,236,6.0,10.0,31,0.00,,,0.00,meteohub,2013-10-10 20:02:00,
2013-10-10 13:07:00,72.3,39.9,29.92,WSW,252,9.0,10.0,31,0.00,,,0.00,meteohub,2013-10-10 20:07:00,
2013-10-10 13:12:00,71.8,38.7,29.92,West,278,3.0,10.0,30,0.00,,,0.00,meteohub,2013-10-10 20:12:00,
2013-10-10 13:17:00,72.1,39.9,29.92,WSW,246,8.0,10.0,31,0.00,,,0.00,meteohub,2013-10-10 20:17:00,
2013-10-10 13:22:00,72.3,40.8,29.91,WSW,256,9.0,10.0,32,0.00,,,0.00,meteohub,2013-10-10 20:22:00,
2013-10-10 13:27:00,72.1,39.9,29.91,West,275,5.0,11.0,31,0.00,,,0.00,meteohub,2013-10-10 20:27:00,
2013-10-10 13:31:00,71.6,40.1,29.91,WSW,246,5.0,11.0,32,0.00,,,0.00,meteohub,2013-10-10 20:31:00,
2013-10-10 13:36:00,72.3,39.9,29.91,SW,230,5.0,14.0,31,0.00,,,0.00,meteohub,2013-10-10 20:36:00,
2013-10-10 13:41:00,72.5,40.1,29.91,South,172,5.0,14.0,31,0.00,,,0.00,meteohub,2013-10-10 20:41:00,
2013-10-10 13:46:00,72.1,39.9,29.91,West,269,8.0,10.0,31,0.00,,,0.00,meteohub,2013-10-10 20:46:00,
2013-10-10 13:51:00,72.3,39.2,29.91,WSW,250,4.0,10.0,30,0.00,,,0.00,meteohub,2013-10-10 20:51:00,
2013-10-10 13:57:00,72.7,39.4,29.91,West,263,10.0,11.0,30,0.00,,,0.00,meteohub,2013-10-10 20:57:00,
2013-10-10 14:02:00,72.3,39.2,29.91,WSW,243,6.0,12.0,30,0.00,,,0.00,meteohub,2013-10-10 21:02:00,
2013-10-10 14:07:00,72.0,38.8,29.91,NNE,12,4.0,12.0,30,0.00,,,0.00,meteohub,2013-10-10 21:07:00,
2013-10-10 14:12:00,72.1,38.1,29.91,NNE,15,3.0,12.0,29,0.00,,,0.00,meteohub,2013-10-10 21:12:00,
2013-10-10 14:17:00,72.3,39.2,29.91,SSE,147,1.0,10.0,30,0.00,,,0.00,meteohub,2013-10-10 21:17:00,
2013-10-10 14:22:00,73.0,39.7,29.91,North,1,2.0,10.0,30,0.00,,,0.00,meteohub,2013-10-10 21:22:00,
2013-10-10 14:27:00,73.8,42.1,29.91,NNW,347,4.0,7.0,32,0.00,,,0.00,meteohub,2013-10-10 21:27:00,
2013-10-10 14:32:00,73.4,41.7,29.91,WSW,254,3.0,6.0,32,0.00,,,0.00,meteohub,2013-10-10 21:32:00,
2013-10-10 14:37:00,73.2,41.5,29.91,SW,224,1.0,6.0,32,0.00,,,0.00,meteohub,2013-10-10 21:37:00,
2013-10-10 14:42:00,73.8,41.2,29.91,North,356,3.0,7.0,31,0.00,,,0.00,meteohub,2013-10-10 21:42:00,
2013-10-10 14:47:00,73.8,40.5,29.91,NNW,342,3.0,7.0,30,0.00,,,0.00,meteohub,2013-10-10 21:47:00,
2013-10-10 14:52:00,73.6,40.3,29.91,WSW,242,7.0,7.0,30,0.00,,,0.00,meteohub,2013-10-10 21:52:00,
2013-10-10 14:57:00,72.7,40.3,29.91,NE,43,3.0,10.0,31,0.00,,,0.00,meteohub,2013-10-10 21:57:00,
2013-10-10 15:02:00,72.3,39.9,29.92,North,4,4.0,10.0,31,0.00,,,0.00,meteohub,2013-10-10 22:02:00,
2013-10-10 15:07:00,72.5,40.1,29.92,NNW,345,5.0,10.0,31,0.00,,,0.00,meteohub,2013-10-10 22:07:00,
2013-10-10 15:12:00,72.5,41.0,29.92,NNW,347,4.0,8.0,32,0.00,,,0.00,meteohub,2013-10-10 22:12:00,
2013-10-10 15:17:00,72.3,40.8,29.92,North,357,6.0,8.0,32,0.00,,,0.00,meteohub,2013-10-10 22:17:00,
2013-10-10 15:22:00,72.5,42.6,29.92,ENE,72,0.0,8.0,34,0.00,,,0.00,meteohub,2013-10-10 22:22:00,
2013-10-10 15:27:00,73.0,43.7,29.92,East,97,2.0,6.0,35,0.00,,,0.00,meteohub,2013-10-10 22:27:00,
2013-10-10 15:32:00,72.9,45.7,29.92,NE,53,2.0,6.0,38,0.00,,,0.00,meteohub,2013-10-10 22:32:00,
2013-10-10 15:37:00,71.8,46.8,29.92,ENE,69,1.0,10.0,41,0.00,,,0.00,meteohub,2013-10-10 22:37:00,
2013-10-10 15:42:00,71.4,45.9,29.92,East,100,8.0,10.0,40,0.00,,,0.00,meteohub,2013-10-10 22:42:00,
2013-10-10 15:47:00,71.2,46.4,29.93,East,87,7.0,11.0,41,0.00,,,0.00,meteohub,2013-10-10 22:47:00,
2013-10-10 15:52:00,70.9,45.3,29.93,South,177,3.0,11.0,40,0.00,,,0.00,meteohub,2013-10-10 22:52:00,
2013-10-10 15:57:00,70.9,45.3,29.92,ENE,68,0.0,11.0,40,0.00,,,0.00,meteohub,2013-10-10 22:57:00,
2013-10-10 16:02:00,71.2,44.2,29.92,NE,40,3.0,9.0,38,0.00,,,0.00,meteohub,2013-10-10 23:02:00,
2013-10-10 16:07:00,71.4,41.5,29.92,NNE,30,0.0,7.0,34,0.00,,,0.00,meteohub,2013-10-10 23:07:00,
2013-10-10 16:12:00,71.4,46.6,29.92,East,96,0.0,7.0,41,0.00,,,0.00,meteohub,2013-10-10 23:12:00,
2013-10-10 16:17:00,71.1,46.2,29.92,East,92,1.0,6.0,41,0.00,,,0.00,meteohub,2013-10-10 23:17:00,
2013-10-10 16:22:00,70.5,45.7,29.92,East,100,4.0,6.0,41,0.00,,,0.00,meteohub,2013-10-10 23:22:00,
2013-10-10 16:27:00,70.9,45.3,29.92,NE,34,1.0,6.0,40,0.00,,,0.00,meteohub,2013-10-10 23:27:00,
2013-10-10 16:32:00,71.1,44.8,29.92,SSW,205,0.0,6.0,39,0.00,,,0.00,meteohub,2013-10-10 23:32:00,
2013-10-10 16:37:00,71.1,45.5,29.92,East,79,0.0,6.0,40,0.00,,,0.00,meteohub,2013-10-10 23:37:00,
2013-10-10 16:42:00,70.5,45.7,29.92,NE,39,2.0,6.0,41,0.00,,,0.00,meteohub,2013-10-10 23:42:00,
2013-10-10 16:47:00,70.3,46.8,29.92,East,80,3.0,6.0,43,0.00,,,0.00,meteohub,2013-10-10 23:47:00,
2013-10-10 16:52:00,69.6,46.8,29.92,East,96,5.0,6.0,44,0.00,,,0.00,meteohub,2013-10-10 23:52:00,
2013-10-10 16:57:00,69.1,46.8,29.92,East,91,2.0,6.0,45,0.00,,,0.00,meteohub,2013-10-10 23:57:00,
2013-10-10 17:02:00,68.7,47.1,29.92,ENE,77,2.0,6.0,46,0.00,,,0.00,meteohub,2013-10-11 00:02:00,
2013-10-10 17:07:00,68.5,46.9,29.92,East,86,3.0,6.0,46,0.00,,,0.00,meteohub,2013-10-11 00:07:00,
2013-10-10 17:12:00,68.2,47.1,29.92,East,84,3.0,4.0,47,0.00,,,0.00,meteohub,2013-10-11 00:12:00,
2013-10-10 17:17:00,67.6,46.8,29.92,NE,45,2.0,4.0,47,0.00,,,0.00,meteohub,2013-10-11 00:17:00,
2013-10-10 17:22:00,67.1,46.8,29.92,ENE,57,1.0,4.0,48,0.00,,,0.00,meteohub,2013-10-11 00:22:00,
2013-10-10 17:27:00,66.6,46.2,29.92,ENE,68,0.0,4.0,48,0.00,,,0.00,meteohub,2013-10-11 00:27:00,
2013-10-10 17:32:00,66.4,45.5,29.92,ENE,68,0.0,4.0,47,0.00,,,0.00,meteohub,2013-10-11 00:32:00,
2013-10-10 17:37:00,66.0,45.1,29.92,NNE,27,0.0,4.0,47,0.00,,,0.00,meteohub,2013-10-11 00:37:00,
2013-10-10 17:42:00,66.0,45.1,29.92,NNE,28,0.0,1.0,47,0.00,,,0.00,meteohub,2013-10-11 00:42:00,
2013-10-10 17:47:00,65.8,45.0,29.92,NNE,27,0.0,1.0,47,0.00,,,0.00,meteohub,2013-10-11 00:47:00,
2013-10-10 17:52:00,65.8,45.0,29.93,NNE,23,0.0,1.0,47,0.00,,,0.00,meteohub,2013-10-11 00:52:00,
2013-10-10 17:58:00,65.5,45.3,29.93,NNE,14,2.0,2.0,48,0.00,,,0.00,meteohub,2013-10-11 00:58:00,
2013-10-10 18:03:00,65.1,46.0,29.93,NNE,12,0.0,3.0,50,0.00,,,0.00,meteohub,2013-10-11 01:03:00,
2013-10-10 18:08:00,64.9,45.9,29.93,NNE,16,0.0,3.0,50,0.00,,,0.00,meteohub,2013-10-11 01:08:00,
2013-10-10 18:13:00,64.6,45.5,29.93,NNE,24,0.0,2.0,50,0.00,,,0.00,meteohub,2013-10-11 01:13:00,
2013-10-10 18:18:00,63.5,47.1,29.93,ENE,60,2.0,2.0,55,0.00,,,0.00,meteohub,2013-10-11 01:18:00,
2013-10-10 18:23:00,63.1,48.2,29.93,NE,54,2.0,4.0,58,0.00,,,0.00,meteohub,2013-10-11 01:23:00,
2013-10-10 18:28:00,62.6,45.7,29.93,NNE,27,0.0,5.0,54,0.00,,,0.00,meteohub,2013-10-11 01:28:00,
2013-10-10 18:33:00,62.2,45.9,29.94,NNE,27,0.0,5.0,55,0.00,,,0.00,meteohub,2013-10-11 01:33:00,
2013-10-10 18:38:00,61.9,46.4,29.94,NNE,26,1.0,5.0,57,0.00,,,0.00,meteohub,2013-10-11 01:38:00,
2013-10-10 18:43:00,61.9,46.9,29.94,NNE,16,1.0,2.0,58,0.00,,,0.00,meteohub,2013-10-11 01:43:00,
2013-10-10 18:48:00,62.1,48.0,29.94,NNE,18,1.0,3.0,60,0.00,,,0.00,meteohub,2013-10-11 01:48:00,
2013-10-10 18:53:00,62.1,48.4,29.94,NNE,22,2.0,4.0,61,0.00,,,0.00,meteohub,2013-10-11 01:53:00,
2013-10-10 18:58:00,61.5,47.5,29.94,North,9,2.0,4.0,60,0.00,,,0.00,meteohub,2013-10-11 01:58:00,
2013-10-10 19:03:00,61.3,47.3,29.94,NNE,23,0.0,5.0,60,0.00,,,0.00,meteohub,2013-10-11 02:03:00,
2013-10-10 19:08:00,61.0,47.8,29.94,NNE,25,1.0,5.0,62,0.00,,,0.00,meteohub,2013-10-11 02:08:00,
2013-10-10 19:13:00,60.6,47.1,29.95,NNE,12,1.0,5.0,61,0.00,,,0.00,meteohub,2013-10-11 02:13:00,
2013-10-10 19:18:00,60.1,46.6,29.95,North,8,2.0,4.0,61,0.00,,,0.00,meteohub,2013-10-11 02:18:00,
2013-10-10 19:23:00,59.7,46.8,29.95,North,0,2.0,3.0,62,0.00,,,0.00,meteohub,2013-10-11 02:23:00,
2013-10-10 19:28:00,59.5,47.3,29.95,North,5,3.0,3.0,64,0.00,,,0.00,meteohub,2013-10-11 02:28:00,
2013-10-10 19:34:00,59.4,47.1,29.95,NNE,17,1.0,5.0,64,0.00,,,0.00,meteohub,2013-10-11 02:34:00,
2013-10-10 19:39:00,59.2,46.9,29.96,NNE,18,1.0,5.0,64,0.00,,,0.00,meteohub,2013-10-11 02:39:00,
2013-10-10 19:44:00,59.2,47.8,29.96,North,353,1.0,5.0,66,0.00,,,0.00,meteohub,2013-10-11 02:44:00,
2013-10-10 19:49:00,59.2,47.8,29.96,NNE,22,1.0,4.0,66,0.00,,,0.00,meteohub,2013-10-11 02:49:00,
2013-10-10 19:54:00,58.8,47.5,29.96,NNE,13,2.0,4.0,66,0.00,,,0.00,meteohub,2013-10-11 02:54:00,
2013-10-10 19:59:00,58.8,48.2,29.96,North,349,3.0,3.0,68,0.00,,,0.00,meteohub,2013-10-11 02:59:00,
2013-10-10 20:04:00,58.5,47.5,29.96,NNW,336,3.0,5.0,67,0.00,,,0.00,meteohub,2013-10-11 03:04:00,
2013-10-10 20:09:00,58.3,47.3,29.96,North,352,3.0,5.0,67,0.00,,,0.00,meteohub,2013-10-11 03:09:00,
2013-10-10 20:14:00,58.3,48.2,29.96,NNW,333,4.0,6.0,69,0.00,,,0.00,meteohub,2013-10-11 03:14:00,
2013-10-10 20:19:00,58.3,47.8,29.97,NNW,338,4.0,6.0,68,0.00,,,0.00,meteohub,2013-10-11 03:19:00,
2013-10-10 20:24:00,57.9,47.5,29.97,NNW,335,4.0,6.0,68,0.00,,,0.00,meteohub,2013-10-11 03:24:00,
2013-10-10 20:29:00,57.6,47.5,29.97,NNW,341,5.0,6.0,69,0.00,,,0.00,meteohub,2013-10-11 03:29:00,
2013-10-10 20:34:00,57.2,47.1,29.97,NNW,343,3.0,6.0,69,0.00,,,0.00,meteohub,2013-10-11 03:34:00,
2013-10-10 20:39:00,57.0,47.3,29.97,NNW,345,3.0,5.0,70,0.00,,,0.00,meteohub,2013-10-11 03:39:00,
2013-10-10 20:44:00,57.0,47.7,29.98,NNE,22,1.0,5.0,71,0.00,,,0.00,meteohub,2013-10-11 03:44:00,
2013-10-10 20:49:00,56.5,46.8,29.98,North,11,1.0,5.0,70,0.00,,,0.00,meteohub,2013-10-11 03:49:00,
2013-10-10 20:54:00,56.5,47.5,29.98,North,355,2.0,4.0,72,0.00,,,0.00,meteohub,2013-10-11 03:54:00,
2013-10-10 20:59:00,56.5,47.5,29.98,North,3,2.0,4.0,72,0.00,,,0.00,meteohub,2013-10-11 03:59:00,
2013-10-10 21:01:00,56.5,47.5,29.98,North,354,1.0,4.0,72,0.00,,,0.00,meteohub,2013-10-11 04:01:00,
2013-10-10 21:02:00,56.5,48.0,29.98,NNW,342,2.0,4.0,73,0.00,,,0.00,meteohub,2013-10-11 04:02:00,
2013-10-10 21:07:00,56.7,48.0,29.98,North,0,2.0,4.0,73,0.00,,,0.00,meteohub,2013-10-11 04:07:00,
2013-10-10 21:12:00,56.5,47.5,29.99,NNW,341,3.0,5.0,72,0.00,,,0.00,meteohub,2013-10-11 04:12:00,
2013-10-10 21:17:00,55.9,47.1,29.99,NNW,332,1.0,5.0,72,0.00,,,0.00,meteohub,2013-10-11 04:17:00,
2013-10-10 21:22:00,55.6,47.1,29.99,NNE,13,0.0,5.0,73,0.00,,,0.00,meteohub,2013-10-11 04:22:00,
2013-10-10 21:27:00,55.6,47.5,29.99,NNW,347,2.0,4.0,74,0.00,,,0.00,meteohub,2013-10-11 04:27:00,
2013-10-10 21:32:00,55.2,46.4,29.99,NNW,341,2.0,4.0,72,0.00,,,0.00,meteohub,2013-10-11 04:32:00,
2013-10-10 21:37:00,55.0,47.7,29.99,NNE,33,1.0,4.0,76,0.00,,,0.00,meteohub,2013-10-11 04:37:00,
2013-10-10 21:42:00,54.9,46.8,29.99,NNE,27,1.0,4.0,74,0.00,,,0.00,meteohub,2013-10-11 04:42:00,
2013-10-10 21:47:00,54.3,46.6,29.99,NNE,33,1.0,4.0,75,0.00,,,0.00,meteohub,2013-10-11 04:47:00,
2013-10-10 21:52:00,54.3,47.3,29.99,North,3,2.0,3.0,77,0.00,,,0.00,meteohub,2013-10-11 04:52:00,
2013-10-10 21:57:00,54.3,47.7,30.00,North,357,2.0,4.0,78,0.00,,,0.00,meteohub,2013-10-11 04:57:00,
2013-10-10 22:02:00,54.3,47.7,30.00,NNW,333,3.0,4.0,78,0.00,,,0.00,meteohub,2013-10-11 05:02:00,
2013-10-10 22:07:00,54.3,48.2,30.00,North,9,1.0,4.0,80,0.00,,,0.00,meteohub,2013-10-11 05:07:00,
2013-10-10 22:12:00,54.3,48.2,30.00,NNW,347,2.0,4.0,80,0.00,,,0.00,meteohub,2013-10-11 05:12:00,
2013-10-10 22:17:00,54.3,48.6,30.00,NNE,22,1.0,4.0,81,0.00,,,0.00,meteohub,2013-10-11 05:17:00,
2013-10-10 22:22:00,54.1,48.4,30.00,North,4,3.0,4.0,81,0.00,,,0.00,meteohub,2013-10-11 05:22:00,
2013-10-10 22:27:00,54.3,49.3,30.00,North,4,2.0,4.0,83,0.00,,,0.00,meteohub,2013-10-11 05:27:00,
2013-10-10 22:32:00,54.3,49.3,30.00,NNE,20,1.0,4.0,83,0.00,,,0.00,meteohub,2013-10-11 05:32:00,
2013-10-10 22:37:00,54.1,48.4,30.01,North,11,2.0,4.0,81,0.00,,,0.00,meteohub,2013-10-11 05:37:00,
2013-10-10 22:42:00,53.8,48.4,30.01,NNE,13,1.0,4.0,82,0.00,,,0.00,meteohub,2013-10-11 05:42:00,
2013-10-10 22:47:00,53.8,48.7,30.01,North,350,2.0,4.0,83,0.00,,,0.00,meteohub,2013-10-11 05:47:00,
2013-10-10 22:52:00,53.4,48.0,30.01,North,352,2.0,4.0,82,0.00,,,0.00,meteohub,2013-10-11 05:52:00,
2013-10-10 22:57:00,53.2,48.2,30.01,NNW,338,3.0,4.0,83,0.00,,,0.00,meteohub,2013-10-11 05:57:00,
2013-10-10 23:02:00,53.1,48.0,30.01,North,358,2.0,3.0,83,0.00,,,0.00,meteohub,2013-10-11 06:02:00,
2013-10-10 23:07:00,52.9,47.8,30.01,North,357,2.0,5.0,83,0.00,,,0.00,meteohub,2013-10-11 06:07:00,
2013-10-10 23:12:00,52.9,48.2,30.01,North,11,1.0,5.0,84,0.00,,,0.00,meteohub,2013-10-11 06:12:00,
2013-10-10 23:17:00,52.9,48.2,30.01,North,4,2.0,5.0,84,0.00,,,0.00,meteohub,2013-10-11 06:17:00,
2013-10-10 23:22:00,52.7,48.0,30.01,North,354,2.0,4.0,84,0.00,,,0.00,meteohub,2013-10-11 06:22:00,
2013-10-10 23:27:00,52.7,48.0,30.01,NNE,12,1.0,4.0,84,0.00,,,0.00,meteohub,2013-10-11 06:27:00,
2013-10-10 23:32:00,52.7,48.0,30.01,NNE,12,0.0,5.0,84,0.00,,,0.00,meteohub,2013-10-11 06:32:00,
2013-10-10 23:37:00,52.5,47.8,30.01,North,6,1.0,5.0,84,0.00,,,0.00,meteohub,2013-10-11 06:37:00,
2013-10-10 23:43:00,52.3,48.0,30.01,NE,44,1.0,5.0,85,0.00,,,0.00,meteohub,2013-10-11 06:43:00,
2013-10-10 23:48:00,52.3,47.7,30.01,North,355,2.0,4.0,84,0.00,,,0.00,meteohub,2013-10-11 06:48:00,
2013-10-10 23:53:00,52.3,48.0,30.01,North,351,2.0,4.0,85,0.00,,,0.00,meteohub,2013-10-11 06:53:00,
2013-10-10 23:58:00,52.2,47.8,30.01,NNE,14,0.0,4.0,85,0.00,,,0.00,meteohub,2013-10-11 06:58:00,